createdAt,value
2022-12-27T00:00:28.994Z,6.60
2022-12-27T00:05:31.395Z,6.50
2022-12-27T00:10:33.757Z,6.50
2022-12-27T00:15:36.721Z,6.50
2022-12-27T00:20:38.840Z,6.50
2022-12-27T00:25:40.971Z,6.50
2022-12-27T00:30:43.196Z,6.50
2022-12-27T00:35:46.249Z,6.60
2022-12-27T00:40:48.667Z,6.70
2022-12-27T00:45:51.045Z,6.80
2022-12-27T00:51:12.449Z,6.80
2022-12-27T00:56:20.331Z,6.80
2022-12-27T01:01:24.673Z,6.80
2022-12-27T01:06:29.573Z,6.90
2022-12-27T01:11:32.121Z,6.90
2022-12-27T01:16:34.641Z,6.80
2022-12-27T01:21:37.873Z,6.80
2022-12-27T01:26:40.009Z,6.80
2022-12-27T01:31:42.200Z,6.80
2022-12-27T01:36:45.020Z,6.80
2022-12-27T01:42:05.929Z,6.80
2022-12-27T01:47:33.039Z,6.80
2022-12-27T01:53:08.780Z,6.70
2022-12-27T01:58:19.276Z,6.50
2022-12-27T02:03:26.295Z,6.60
2022-12-27T02:08:45.236Z,6.50
2022-12-27T02:13:47.479Z,6.50
2022-12-27T02:18:49.734Z,6.60
2022-12-27T02:24:13.424Z,6.60
2022-12-27T02:29:38.439Z,6.60
2022-12-27T02:34:54.363Z,6.60
2022-12-27T02:40:18.630Z,6.70
2022-12-27T02:45:46.872Z,6.70
2022-12-27T02:51:10.882Z,6.70
2022-12-27T02:56:58.287Z,6.80
2022-12-27T03:02:19.161Z,6.80
2022-12-27T03:07:45.860Z,6.80
2022-12-27T03:13:18.001Z,6.80
2022-12-27T03:18:36.004Z,6.80
2022-12-27T03:23:59.223Z,6.80
2022-12-27T03:29:21.441Z,6.80
2022-12-27T03:34:36.061Z,6.90
2022-12-27T03:39:46.886Z,6.90
2022-12-27T03:44:49.672Z,7.00
2022-12-27T03:50:03.366Z,7.00
2022-12-27T03:55:06.320Z,7.00
2022-12-27T04:00:09.174Z,7.10
2022-12-27T04:05:18.471Z,7.10
2022-12-27T04:10:39.215Z,7.10
2022-12-27T04:16:00.134Z,7.00
2022-12-27T04:21:20.661Z,7.00
2022-12-27T04:26:41.111Z,7.00
2022-12-27T04:32:01.561Z,7.00
2022-12-27T04:37:04.039Z,6.90
2022-12-27T04:42:24.835Z,6.90
2022-12-27T04:47:45.978Z,6.80
2022-12-27T04:53:07.326Z,6.80
2022-12-27T04:58:09.690Z,6.80
2022-12-27T05:03:15.228Z,6.70
2022-12-27T05:08:38.550Z,6.70
2022-12-27T05:13:59.750Z,6.70
2022-12-27T05:19:02.194Z,6.60
2022-12-27T05:24:23.572Z,6.60
2022-12-27T05:29:25.645Z,6.60
2022-12-27T05:34:27.713Z,6.60
2022-12-27T05:39:29.796Z,6.60
2022-12-27T05:44:31.927Z,6.60
2022-12-27T05:49:34.031Z,6.60
2022-12-27T05:54:36.125Z,6.60
2022-12-27T05:59:38.346Z,6.60
2022-12-27T06:04:40.457Z,6.60
2022-12-27T06:09:42.891Z,6.60
2022-12-27T06:14:45.001Z,6.50
2022-12-27T06:19:52.452Z,6.50
2022-12-27T06:24:57.426Z,6.50
2022-12-27T06:29:59.536Z,6.50
2022-12-27T06:35:01.681Z,6.50
2022-12-27T06:40:04.241Z,6.50
2022-12-27T06:45:07.201Z,6.50
2022-12-27T06:50:09.677Z,6.50
2022-12-27T06:55:11.792Z,6.50
2022-12-27T07:00:14.607Z,6.40
2022-12-27T07:05:16.816Z,6.40
2022-12-27T07:10:19.041Z,6.40
2022-12-27T07:15:21.102Z,6.40
2022-12-27T07:20:23.175Z,6.40
2022-12-27T07:25:25.329Z,6.50
2022-12-27T07:30:29.525Z,6.60
2022-12-27T07:35:31.568Z,6.70
2022-12-27T07:40:36.950Z,6.80
2022-12-27T07:45:39.094Z,6.80
2022-12-27T07:50:41.260Z,6.80
2022-12-27T07:55:43.475Z,6.70
2022-12-27T08:00:48.232Z,6.70
2022-12-27T08:05:54.062Z,6.70
2022-12-27T08:11:00.566Z,6.60
2022-12-27T08:16:07.815Z,6.60
2022-12-27T08:21:09.972Z,6.60
2022-12-27T08:26:12.145Z,6.50
2022-12-27T08:31:14.848Z,6.50
2022-12-27T08:41:39.551Z,6.50
2022-12-27T08:46:41.682Z,6.60
2022-12-27T08:51:43.753Z,6.60
2022-12-27T08:56:46.044Z,6.70
2022-12-27T09:01:48.269Z,6.70
2022-12-27T09:06:50.508Z,6.80
2022-12-27T09:11:52.641Z,6.90
2022-12-27T09:16:54.768Z,7.00
2022-12-27T09:21:56.844Z,7.00
2022-12-27T09:26:58.917Z,7.10
2022-12-27T09:32:01.010Z,7.10
2022-12-27T09:37:03.162Z,7.20
2022-12-27T09:47:56.284Z,7.40
2022-12-27T09:53:27.202Z,7.50
2022-12-27T09:58:45.848Z,7.60
2022-12-27T10:03:48.431Z,7.70
2022-12-27T10:08:59.602Z,7.80
2022-12-27T10:14:35.716Z,7.90
2022-12-27T10:20:01.912Z,8.10
2022-12-27T10:25:10.628Z,8.20
2022-12-27T10:30:19.974Z,8.40
2022-12-27T10:35:24.302Z,8.50
2022-12-27T10:40:39.403Z,8.60
2022-12-27T10:45:42.737Z,8.80
2022-12-27T10:50:56.222Z,8.90
2022-12-27T10:56:15.256Z,9.20
2022-12-27T11:01:26.363Z,9.30
2022-12-27T11:06:28.724Z,9.50
2022-12-27T11:11:30.976Z,9.70
2022-12-27T11:16:36.235Z,9.80
2022-12-27T11:21:40.921Z,9.90
2022-12-27T11:26:58.189Z,10.00
2022-12-27T11:32:06.949Z,10.20
2022-12-27T11:37:15.662Z,10.30
2022-12-27T11:42:42.834Z,10.40
2022-12-27T11:47:51.994Z,10.60
2022-12-27T11:53:21.006Z,10.70
2022-12-27T11:58:45.618Z,10.80
2022-12-27T12:04:18.565Z,11.00
2022-12-27T12:09:30.549Z,11.10
2022-12-27T12:15:06.323Z,10.90
2022-12-27T12:20:48.734Z,10.80
2022-12-27T12:26:13.580Z,10.90
2022-12-27T12:31:43.184Z,11.00
2022-12-27T12:37:05.510Z,11.10
2022-12-27T12:42:37.893Z,11.30
2022-12-27T12:47:52.273Z,11.20
2022-12-27T12:53:20.790Z,11.10
2022-12-27T12:58:37.606Z,11.00
2022-12-27T13:03:58.500Z,11.00
2022-12-27T13:09:15.497Z,11.00
2022-12-27T13:14:34.887Z,11.10
2022-12-27T13:20:01.800Z,11.10
2022-12-27T13:25:41.490Z,11.20
2022-12-27T13:30:49.680Z,11.10
2022-12-27T13:36:15.760Z,11.10
2022-12-27T13:41:30.068Z,11.00
2022-12-27T13:46:53.701Z,10.90
2022-12-27T13:52:08.603Z,10.80
2022-12-27T13:57:10.645Z,10.80
2022-12-27T14:02:37.620Z,10.80
2022-12-27T14:08:10.814Z,10.90
2022-12-27T14:13:15.751Z,11.00
2022-12-27T14:18:42.184Z,11.00
2022-12-27T14:23:56.440Z,11.00
2022-12-27T14:29:24.779Z,10.90
2022-12-27T14:34:45.570Z,11.00
2022-12-27T14:39:59.621Z,11.00
2022-12-27T14:45:23.341Z,11.00
2022-12-27T14:50:41.125Z,11.00
2022-12-27T14:55:54.907Z,10.90
2022-12-27T15:01:03.369Z,10.90
2022-12-27T15:06:31.745Z,10.90
2022-12-27T15:12:10.836Z,10.90
2022-12-27T15:17:33.469Z,10.90
2022-12-27T15:23:13.788Z,10.80
2022-12-27T15:28:34.634Z,10.70
2022-12-27T15:34:04.350Z,10.70
2022-12-27T15:39:26.905Z,10.70
2022-12-27T15:44:38.752Z,10.60
2022-12-27T15:50:15.657Z,10.50
2022-12-27T15:55:38.313Z,10.50
2022-12-27T16:00:41.205Z,10.50
2022-12-27T16:05:49.501Z,10.50
2022-12-27T16:10:51.987Z,10.40
2022-12-27T16:15:55.368Z,10.50
2022-12-27T16:21:02.150Z,10.40
2022-12-27T16:26:27.641Z,10.40
2022-12-27T16:31:37.903Z,10.40
2022-12-27T16:36:47.934Z,10.40
2022-12-27T16:41:55.989Z,10.30
2022-12-27T16:47:00.864Z,10.30
2022-12-27T16:52:26.050Z,10.20
2022-12-27T16:57:28.129Z,10.20
2022-12-27T17:02:40.026Z,10.20
2022-12-27T17:07:55.322Z,10.20
2022-12-27T17:12:59.760Z,10.20
2022-12-27T17:18:15.744Z,10.20
2022-12-27T17:23:17.984Z,10.20
2022-12-27T17:28:30.663Z,10.20
2022-12-27T17:33:40.026Z,10.20
2022-12-27T17:38:54.365Z,10.20
2022-12-27T17:44:24.181Z,10.20
2022-12-27T17:49:31.881Z,10.20
2022-12-27T17:54:52.680Z,10.20
2022-12-27T17:59:55.916Z,10.20
2022-12-27T18:05:02.814Z,10.20
2022-12-27T18:10:08.136Z,10.10
2022-12-27T18:15:18.246Z,10.00
2022-12-27T18:20:40.911Z,9.90
2022-12-27T18:25:45.666Z,9.80
2022-12-27T18:31:29.729Z,9.80
2022-12-27T18:36:51.980Z,9.80
2022-12-27T18:41:55.778Z,9.80
2022-12-27T18:47:01.802Z,9.70
2022-12-27T18:52:15.408Z,9.80
2022-12-27T18:57:37.812Z,9.80
2022-12-27T19:02:40.560Z,9.80
2022-12-27T19:07:42.911Z,9.80
2022-12-27T19:12:45.752Z,9.90
2022-12-27T19:17:50.304Z,9.90
2022-12-27T19:22:55.791Z,9.90
2022-12-27T19:27:59.005Z,10.00
2022-12-27T19:33:03.140Z,10.00
2022-12-27T19:38:05.243Z,10.00
2022-12-27T19:43:07.311Z,10.10
2022-12-27T19:48:10.366Z,10.10
2022-12-27T19:53:16.260Z,10.10
2022-12-27T19:58:24.509Z,10.10
2022-12-27T20:03:27.135Z,10.10
2022-12-27T20:08:37.986Z,10.00
2022-12-27T20:13:40.109Z,10.10
2022-12-27T20:18:43.041Z,10.10
2022-12-27T20:23:45.612Z,10.10
2022-12-27T20:28:48.616Z,10.10
2022-12-27T20:33:55.334Z,10.20
2022-12-27T20:38:58.493Z,10.20
2022-12-27T20:44:00.596Z,10.30
2022-12-27T20:49:03.315Z,10.30
2022-12-27T20:54:05.554Z,10.30
2022-12-27T20:59:07.633Z,10.40
2022-12-27T21:04:09.787Z,10.40
2022-12-27T21:09:12.812Z,10.40
2022-12-27T21:14:14.880Z,10.50
2022-12-27T21:19:16.925Z,10.50
2022-12-27T21:24:18.970Z,10.50
2022-12-27T21:29:21.054Z,10.60
2022-12-27T21:34:23.116Z,10.60
2022-12-27T21:39:25.458Z,10.60
2022-12-27T21:44:28.370Z,10.70
2022-12-27T21:49:30.878Z,10.70
2022-12-27T21:54:33.022Z,10.70
2022-12-27T21:59:35.176Z,10.70
2022-12-27T22:04:37.242Z,10.70
2022-12-27T22:09:39.356Z,10.80
2022-12-27T22:14:41.448Z,10.70
2022-12-27T22:19:43.593Z,10.70
2022-12-27T22:24:45.731Z,10.70
2022-12-27T22:29:47.858Z,10.70
2022-12-27T22:34:49.952Z,10.70
2022-12-27T22:39:52.039Z,10.70
2022-12-27T22:44:54.133Z,10.60
2022-12-27T22:49:56.287Z,10.60
2022-12-27T22:55:04.870Z,10.50
2022-12-27T23:00:14.316Z,10.50
2022-12-27T23:05:16.470Z,10.50
2022-12-27T23:10:18.675Z,10.50
2022-12-27T23:15:20.822Z,10.50
2022-12-27T23:20:23.027Z,10.50
2022-12-27T23:25:25.563Z,10.50
2022-12-27T23:30:27.752Z,10.60
2022-12-27T23:35:29.975Z,10.60
2022-12-27T23:40:32.915Z,10.50
2022-12-27T23:45:35.043Z,10.50
2022-12-27T23:50:37.177Z,10.50
2022-12-27T23:55:39.488Z,10.60
